Mosier, Oregon
Current Conditions -  °F | °C
As of 6:39 AM on Thursday 23 Oct 2014 (Local Time) from K4S2 Reporting Station
Moderate Rain Moderate Rain  
Wind Chill: 50°   Ceiling: 5000
Heat Index: 50°   Visibility: 7mi
Dew Point: 50°   Wind: 0mph
Humidity: 100%   Direction: NA
Pressure: 29.79"   Gusts: NA
Location:  45.68°N, 121.4°W
Report Text: K4S2 231339Z AUTO 00000KT 7SM RA SCT005 BKN050 OVC065 10/10 A2979 RMK AO2 P0002 SLP101 T01000100
Loading
Personal Weather Stations






























Interactive Weather Map
Tropical Storm Tracking
New forecast layout! Learn more

10-Day Weather Forecast

Advertisements
Track Severe Weather on mobile